Aviation Digital Data Service (ADDS)

Output produced by TAFs form (1739 UTC 21 April 2018)
found at http://aviationweather.gov/adds/tafs/
 
RJNK 211700Z 15003KT 9999 NSC 14/07 Q1020
TAF RJNK 211705Z 2118/2300 24008KT 9999 FEW030 
     BECMG 2215/2218 14004KT 
     TEMPO 2215/2221 4000 BR